Aérodrome :
LOGIN :

S'inscrire | Disclaimer

   EN    FR    IT 

 










Légende :    VFR   VFR Marginal   IFR   IFR Intensif   IFR Très Intensif
Visi : 
Plafond : 
>= 8 km
>= 3000ft
5 à 8 km
1000 à 3000 ft
1500m à 5 km
500 à 1000 ft
800 à 1500m
200 à 500 ft
< 800m
< 200 ft
Symboles :   Orages  Brouillard  Fortes neiges  Fortes précipitations  Vent > 20 kt
SIGMETs :   Divers  Orages  Givrage  Turbulence  Onde Orograph.  Cendres Volcan.







- Altitude de l'aérodrome : 18 ft
- Code IATA : AJA
- Voir les cartes d'approche


LFKJ - Ajaccio

DERNIER METAR :
  • 181600Z AUTO 03006KT 9999 ///TCU 28/18 Q1016 TEMPO TSRA FEW035CB BKN100

METARs EXPIRÉS :
  • 181530Z AUTO 02006KT 9999 ///TCU 28/18 Q1016 TEMPO TSRA FEW035CB BKN100
  • 181500Z AUTO 02008KT 9999 FEW039/// OVC160/// ///CB 27/18 Q1016 TEMPO TSRA
  • 181430Z AUTO 04008KT 350V110 9999 VCTS ///CB 27/19 Q1016 NOSIG
  • 181400Z AUTO 07005KT 050V120 9999 VCTS SCT066/// BKN160/// BKN180/// ///CB 28/19 Q1016 NOSIG
  • 181330Z AUTO 03007KT 360V070 9999 TS FEW064/// SCT130/// BKN180/// ///CB 29/18 Q1016 NOSIG

TAF TAF LFKJ
Valide du 18 à 15h jusqu'au 19 à 15h UTC


181400Z 1815/1915 21008KT 9999 FEW035
TEMPO 1815/1817 VRB05KT TSRA FEW035CB BKN100
TEMPO 1912/1915 FEW040TCU
ATIS : +33 4 95 23 59 85
Pas de NOTAMs connus pour ce terrain.
1 SIGMET publié pour la FIR Marseille (LFMM) :
 
Orages noyés dans la masse
LFMM SIGMET 6 VALID 181520/181700 LFPW
LFMM MARSEILLE FIR/UIR EMBD TS FCST WI N4315 E00545 - N4445 E00530 - N4415 E00700 - N4345 E00700 - N4315 E00615 - N4315 E00545 TOP FL390 STNR NC=



MET'MAP, la Météo Aéronautique d'un coup d'oeil ! - Copyright ORBIFLY Décembre 2007 - Disclaimer

ORBIFLY MET'MAP TEAM :

Programmation & Développement : Alexandra Zaïnal
Conception & Développement : Baudouin d'Aumeries
Co-Programmation & Développement : Marc-Olivier Méhu
Soutien technique & logistique : Manuel Goepfert

Contact : metmap@orbifly.com




SOURCES & CREDITS :

   NOAA